Eastlake, Colorado
Current Conditions -  °F | °C
As of 2:35 PM on Saturday 22 Nov 2014 (Local Time) from KEIK Reporting Station
Clear Clear  
Wind Chill: 52°   Ceiling: Unl
Heat Index: 52°   Visibility: 10mi
Dew Point: 28°   Wind: 7mph
Humidity: 39%   Direction: 20°NNE
Pressure: 29.56"   Gusts: NA
Location:  39.92°N, 104.96°W
Report Text: KEIK 222135Z AUTO 02006KT 10SM CLR 11/M02 A2956 RMK AO2 T01131022
Loading
Personal Weather Stations






























Interactive Weather Map New forecast layout! Learn more

10-Day Weather Forecast

Advertisements
Track Severe Weather on mobile